首页
METAR-TAF:

METAR-TAF

机场 :

努瓦克肖特国际机场

努瓦克肖特, 毛里塔尼亚

纬度: 18-18-36N, 经度: 015-58-11W, 海拔: 3米

当前天气观测

该预报发布于27分钟前的21:00 UTC
风速14节,风向
温度 31°C
湿度 38%
气压 1011 hPa
能見度: 4000
高吹沙

METAR: GQNO 222100Z 01014KT 4000 BLSA NSC 31/15 Q1011 NOSIG

时间: 21:27 (21:27 UTC)

预报

该预报发布于4小时和27分钟前的17:00 UTC
预报有效从22日的 18点(UTC)到 23日的 24点(UTC)
风速13节,风向
能見度: 3500
高吹沙
成为
从 22日的 20点(UTC)到 22日的 22点(UTC)
能見度: 6000
短暂存在
从 23日的 09点(UTC)到 23日的 16点(UTC)
风速14节,风向
能見度: 3000
高吹沙

TAF: GQNO 221700Z 2218/2324 36013KT 3500 BLSA NSC BECMG 2220/2222 6000 NSW TEMPO 2309/2316 08014KT 3000 BLSA

超过4000个机场的气象观测和天气预报(METAR&TAF报告)。

可查询的气象台以黄色和红色小点在地图上表示。

将鼠标移到小点上方,可查看气象台名称。

然后点击查看天气观测和预报。

如需切换地图:点击带黑十字的绿色按钮放大地图;点击带横线的绿色按钮缩小地图;或者点击绿色箭头查看邻近地区的地图。


METAR-TAF: